Time;durP1;ratioP1;P1;durP2;ratioP2;P2;SDS_P1;SDS_P2;PMS_P1;PMS_P2;Temp;Humidity;BMP_temperature;BMP_pressure;BME280_temperature;BME280_humidity;BME280_pressure;Samples;Min_cycle;Max_cycle;Signal;HPM_P1;HPM_P2
2021/11/17 02:27:58;;;;;;;2.90;1.77;;;;;;;-145.06;100.00;60892.56;4869661;28;20041;-87
2021/11/17 02:31:09;;;;;;;3.75;1.90;;;;;;;-145.06;100.00;60892.56;4863918;28;20029;-86
2021/11/17 02:34:00;;;;;;;2.17;1.48;;;;;;;-145.06;100.00;60892.56;4860512;28;20029;-87
2021/11/17 02:36:52;;;;;;;2.33;1.40;;;;;;;-145.06;100.00;60892.56;4856087;28;20025;-87
2021/11/17 02:39:37;;;;;;;2.97;1.98;;;;;;;-145.06;100.00;60892.56;4871574;28;20056;-87
2021/11/17 02:42:35;;;;;;;2.80;2.05;;;;;;;-145.06;100.00;60892.56;4869722;28;20116;-86
2021/11/17 02:45:26;;;;;;;3.10;2.05;;;;;;;-145.06;100.00;60892.56;4870799;28;20028;-86
2021/11/17 02:48:24;;;;;;;2.72;2.00;;;;;;;-145.06;100.00;60892.56;4878319;28;20032;-87
2021/11/17 02:51:28;;;;;;;3.17;2.22;;;;;;;-145.06;100.00;60892.56;4875441;28;20028;-86
2021/11/17 02:54:17;;;;;;;3.13;2.38;;;;;;;-145.06;100.00;60892.56;4855429;28;20029;-87
2021/11/17 02:57:04;;;;;;;3.55;2.33;;;;;;;-145.06;100.00;60892.56;4858970;28;20120;-87
2021/11/17 02:59:54;;;;;;;3.15;2.05;;;;;;;-145.06;100.00;60892.56;4861414;28;20033;-86
2021/11/17 03:02:36;;;;;;;;;;;;;;;-145.06;100.00;60892.56;4853051;28;20471;-86
2021/11/17 03:05:46;;;;;;;2.47;1.67;;;;;;;-145.06;100.00;60892.56;4878519;28;19987;-87
2021/11/17 03:08:54;;;;;;;2.50;1.80;;;;;;;-145.06;100.00;60892.56;4870252;28;20033;-87
2021/11/17 03:11:51;;;;;;;3.85;2.13;;;;;;;-145.06;100.00;60892.56;4865185;28;20068;-87
2021/11/17 03:14:37;;;;;;;2.67;1.83;;;;;;;-145.06;100.00;60892.56;4870074;28;20484;-86
2021/11/17 03:17:23;;;;;;;3.55;2.15;;;;;;;-145.06;100.00;60892.56;4852197;28;20503;-87
2021/11/17 03:20:24;;;;;;;4.65;2.45;;;;;;;-145.06;100.00;60892.56;4855662;28;20033;-87
2021/11/17 03:23:53;;;;;;;2.35;1.90;;;;;;;-145.06;100.00;60892.56;4866280;28;20021;-86
2021/11/17 03:26:42;;;;;;;2.72;1.80;;;;;;;-145.06;100.00;60892.56;4833562;28;20049;-87
2021/11/17 03:29:46;;;;;;;2.72;2.03;;;;;;;-145.06;100.00;60892.56;4875874;28;20037;-87
2021/11/17 03:32:41;;;;;;;2.70;1.55;;;;;;;-145.06;100.00;60892.56;4870140;28;20025;-87
2021/11/17 03:35:32;;;;;;;2.78;1.60;;;;;;;-145.06;100.00;60892.56;4857892;28;20025;-86
2021/11/17 03:38:37;;;;;;;2.22;1.65;;;;;;;-145.06;100.00;60892.56;4857847;28;20033;-86
2021/11/17 03:41:22;;;;;;;2.10;1.50;;;;;;;-145.06;100.00;60892.56;4863935;28;20037;-87
2021/11/17 03:44:08;;;;;;;1.83;1.38;;;;;;;-145.06;100.00;60892.56;4871299;28;20056;-87
2021/11/17 03:47:06;;;;;;;2.30;1.92;;;;;;;-145.06;100.00;60892.56;4865770;28;20051;-87
2021/11/17 03:50:00;;;;;;;3.08;2.10;;;;;;;-145.06;100.00;60892.56;4863164;28;20037;-86
2021/11/17 03:53:00;;;;;;;2.50;1.90;;;;;;;-145.06;100.00;60892.56;4868470;28;20021;-88
2021/11/17 03:55:54;;;;;;;2.50;1.73;;;;;;;-145.06;100.00;60892.56;4843438;28;20112;-87
2021/11/17 03:59:01;;;;;;;2.78;1.70;;;;;;;-145.06;100.00;60892.56;4878072;28;20069;-87
2021/11/17 04:01:43;;;;;;;2.15;1.55;;;;;;;-145.06;100.00;60892.56;4873967;28;20064;-87
2021/11/17 04:04:51;;;;;;;2.10;1.50;;;;;;;-145.06;100.00;60892.56;4874205;28;20147;-87
2021/11/17 04:07:56;;;;;;;3.30;2.00;;;;;;;-145.06;100.00;60892.56;4871629;28;20048;-86
2021/11/17 04:11:04;;;;;;;2.20;1.80;;;;;;;-145.06;100.00;60892.56;4878604;28;20021;-87
2021/11/17 04:13:58;;;;;;;2.28;1.70;;;;;;;-145.06;100.00;60892.56;4874598;28;20024;-86
2021/11/17 04:17:08;;;;;;;2.95;1.73;;;;;;;-145.06;100.00;60892.56;4876778;28;20478;-87
2021/11/17 04:20:09;;;;;;;3.67;2.10;;;;;;;-145.06;100.00;60892.56;4857460;28;20017;-87
2021/11/17 04:22:55;;;;;;;3.00;2.00;;;;;;;-145.06;100.00;60892.56;4873685;28;20108;-87
2021/11/17 04:25:53;;;;;;;2.30;1.60;;;;;;;-145.06;100.00;60892.56;4866858;28;20029;-87
2021/11/17 04:28:35;;;;;;;2.20;1.65;;;;;;;-145.06;100.00;60892.56;4852964;28;20029;-87
2021/11/17 04:31:37;;;;;;;2.60;1.70;;;;;;;-145.06;100.00;60892.56;4867209;28;20357;-88
2021/11/17 04:34:50;;;;;;;1.88;1.40;;;;;;;-145.06;100.00;60892.56;4858857;28;20029;-87
2021/11/17 04:37:59;;;;;;;1.55;1.27;;;;;;;-145.06;100.00;60892.56;4873484;28;20029;-87
2021/11/17 04:41:09;;;;;;;1.75;1.30;;;;;;;-145.06;100.00;60892.56;4859591;28;20026;-87
2021/11/17 04:43:54;;;;;;;1.25;1.08;;;;;;;-145.06;100.00;60892.56;4878130;28;20053;-87
2021/11/17 04:46:54;;;;;;;1.45;1.20;;;;;;;-145.06;100.00;60892.56;4881391;28;20052;-88
2021/11/17 04:50:05;;;;;;;1.25;0.82;;;;;;;-145.06;100.00;60892.56;4872758;28;20025;-87
2021/11/17 04:52:53;;;;;;;2.13;1.30;;;;;;;-145.06;100.00;60892.56;4865121;28;20474;-87
2021/11/17 04:56:04;;;;;;;1.70;1.00;;;;;;;-145.06;100.00;60892.56;4865307;28;20025;-87
2021/11/17 04:59:00;;;;;;;1.80;1.30;;;;;;;-145.06;100.00;60892.56;4851023;28;20033;-87
2021/11/17 05:02:00;;;;;;;1.63;1.20;;;;;;;-145.06;100.00;60892.56;4846415;28;20014;-87
2021/11/17 05:05:05;;;;;;;1.70;1.42;;;;;;;-145.06;100.00;60892.56;4830339;28;20029;-87
2021/11/17 05:07:59;;;;;;;3.88;1.80;;;;;;;-145.06;100.00;60892.56;4871820;28;20029;-86
2021/11/17 05:11:00;;;;;;;2.88;2.00;;;;;;;-145.06;100.00;60892.56;4871408;28;20356;-87
2021/11/17 05:13:47;;;;;;;2.45;1.80;;;;;;;-145.06;100.00;60892.56;4869916;28;20033;-87
2021/11/17 05:17:04;;;;;;;1.98;1.48;;;;;;;-145.06;100.00;60892.56;4873839;28;20025;-87
2021/11/17 05:19:46;;;;;;;3.13;1.60;;;;;;;-145.06;100.00;60892.56;4889139;28;20474;-87
2021/11/17 05:22:58;;;;;;;2.28;1.58;;;;;;;-145.06;100.00;60892.56;4868871;28;20056;-87
2021/11/17 05:25:55;;;;;;;2.38;1.77;;;;;;;-145.06;100.00;60892.56;4870848;28;20033;-88
2021/11/17 05:28:40;;;;;;;2.17;1.70;;;;;;;-145.06;100.00;60892.56;4876893;28;20089;-87
2021/11/17 05:31:31;;;;;;;3.13;2.13;;;;;;;-145.06;100.00;60892.56;4879937;28;20615;-87
2021/11/17 05:34:38;;;;;;;3.03;2.05;;;;;;;-145.06;100.00;60892.56;4852338;28;20352;-87
2021/11/17 05:37:34;;;;;;;3.22;1.92;;;;;;;-145.06;100.00;60892.56;4847281;28;20033;-87
2021/11/17 05:40:34;;;;;;;3.00;1.85;;;;;;;-145.06;100.00;60892.56;4855219;28;20033;-87
2021/11/17 05:43:36;;;;;;;2.22;1.63;;;;;;;-145.06;100.00;60892.56;4867330;28;20025;-87
2021/11/17 05:46:24;;;;;;;2.15;1.58;;;;;;;-145.06;100.00;60892.56;4874143;28;20384;-87
2021/11/17 05:49:09;;;;;;;2.95;1.65;;;;;;;-145.06;100.00;60892.56;4883512;28;20371;-87
2021/11/17 05:52:21;;;;;;;4.70;1.90;;;;;;;-145.06;100.00;60892.56;4887315;28;20021;-87
2021/11/17 05:55:37;;;;;;;2.47;1.77;;;;;;;-145.06;100.00;60892.56;4856585;28;20435;-87
2021/11/17 05:58:19;;;;;;;2.50;1.90;;;;;;;-145.06;100.00;60892.56;4880244;28;20068;-87
2021/11/17 06:01:14;;;;;;;2.78;1.90;;;;;;;-145.06;100.00;60892.56;4876493;28;20036;-87
2021/11/17 06:03:57;;;;;;;4.68;2.70;;;;;;;-145.06;100.00;60892.56;4873896;28;20033;-87
2021/11/17 06:06:36;;;;;;;2.75;1.80;;;;;;;-145.06;100.00;60892.56;4865086;28;20041;-86
2021/11/17 06:09:15;;;;;;;3.17;1.92;;;;;;;-145.06;100.00;60892.56;4870432;28;20625;-86
2021/11/17 06:11:58;;;;;;;3.53;1.83;;;;;;;-145.06;100.00;60892.56;4863507;28;20462;-86
2021/11/17 06:14:41;;;;;;;2.70;1.83;;;;;;;-145.06;100.00;60892.56;4871109;28;20266;-87
2021/11/17 06:17:23;;;;;;;2.55;1.80;;;;;;;-145.06;100.00;60892.56;4866980;28;20029;-86
2021/11/17 06:20:04;;;;;;;2.20;1.67;;;;;;;-145.06;100.00;60892.56;4867415;28;20108;-87
2021/11/17 06:23:06;;;;;;;2.28;1.63;;;;;;;-145.06;100.00;60892.56;4865083;28;20522;-87
2021/11/17 06:25:45;;;;;;;2.75;1.85;;;;;;;-145.06;100.00;60892.56;4875282;28;20024;-87
2021/11/17 06:28:27;;;;;;;3.35;1.65;;;;;;;-145.06;100.00;60892.56;4865027;28;20029;-87
2021/11/17 06:31:07;;;;;;;2.35;1.65;;;;;;;-145.06;100.00;60892.56;4865986;28;20072;-86
2021/11/17 06:33:47;;;;;;;2.70;1.67;;;;;;;7.51;100.00;60892.56;4863460;28;20041;-87
2021/11/17 06:36:26;;;;;;;2.22;1.50;;;;;;;-145.06;100.00;60892.56;4863599;28;20259;-87
2021/11/17 06:39:05;;;;;;;2.30;1.70;;;;;;;-145.06;100.00;60892.56;4878171;28;20028;-87
2021/11/17 06:41:44;;;;;;;2.23;1.57;;;;;;;-145.06;100.00;60892.56;4864734;28;20029;-87
2021/11/17 06:44:23;;;;;;;2.40;1.40;;;;;;;-145.06;100.00;60892.56;4866359;28;20033;-87
2021/11/17 06:47:02;;;;;;;;;;;;;;;10.68;100.00;60892.56;4870182;28;20033;-87
2021/11/17 06:49:42;;;;;;;1.60;1.05;;;;;;;7.71;100.00;60892.56;4873975;28;19909;-87
2021/11/17 06:52:22;;;;;;;1.65;1.23;;;;;;;-145.06;100.00;60892.56;4869609;28;20108;-87
2021/11/17 06:55:03;;;;;;;1.92;1.48;;;;;;;-145.06;100.00;60892.56;4886234;28;20028;-87
2021/11/17 06:57:42;;;;;;;1.80;1.50;;;;;;;7.77;100.00;60892.56;4868662;28;20033;-87
2021/11/17 07:00:25;;;;;;;2.53;1.60;;;;;;;7.79;100.00;60892.56;4869220;28;20061;-88
2021/11/17 07:03:05;;;;;;;1.35;1.25;;;;;;;-145.06;100.00;60892.56;4860703;28;20838;-87
2021/11/17 07:05:44;;;;;;;1.73;1.30;;;;;;;-145.06;100.00;60892.56;4861798;28;20026;-86
2021/11/17 07:08:24;;;;;;;1.55;1.02;;;;;;;7.91;100.00;60892.56;4874022;28;20044;-87
2021/11/17 07:11:03;;;;;;;2.05;1.13;;;;;;;7.92;100.00;60892.56;4870707;28;20028;-86
2021/11/17 07:13:42;;;;;;;2.20;1.40;;;;;;;-145.06;100.00;60892.56;4862945;28;20108;-88
2021/11/17 07:16:21;;;;;;;1.55;1.15;;;;;;;7.95;100.00;60892.56;4869070;28;20120;-87
2021/11/17 07:19:02;;;;;;;1.73;1.37;;;;;;;-145.06;100.00;60892.56;4876946;28;20029;-87
2021/11/17 07:21:43;;;;;;;2.10;1.48;;;;;;;-145.06;100.00;60892.56;4868276;28;20499;-87
2021/11/17 07:24:23;;;;;;;2.33;1.63;;;;;;;8.08;100.00;60892.56;4860338;28;20391;-88
2021/11/17 07:27:02;;;;;;;;;;;;;;;8.08;100.00;60892.56;4868515;28;20025;-87
2021/11/17 07:29:41;;;;;;;1.92;1.38;;;;;;;-145.06;100.00;60892.56;4881641;28;19913;-87
2021/11/17 07:32:22;;;;;;;2.50;1.73;;;;;;;8.17;100.00;60892.56;4874018;28;20625;-87
2021/11/17 07:35:02;;;;;;;2.50;1.75;;;;;;;8.25;100.00;60892.56;4871203;28;20284;-87
2021/11/17 07:37:41;;;;;;;;;;;;;;;-145.06;100.00;60892.56;4872361;28;20663;-87
2021/11/17 07:40:20;;;;;;;2.13;1.23;;;;;;;-145.06;100.00;60892.56;4875785;28;19913;-87
2021/11/17 07:43:00;;;;;;;2.17;1.33;;;;;;;-145.06;100.00;60892.56;4882419;28;20045;-87
2021/11/17 07:45:40;;;;;;;1.92;1.30;;;;;;;-145.06;100.00;60892.56;4876238;28;20033;-87
2021/11/17 07:48:25;;;;;;;2.03;1.23;;;;;;;-145.06;100.00;60892.56;4867400;28;20036;-87
2021/11/17 07:51:05;;;;;;;1.45;1.17;;;;;;;-145.06;100.00;60892.56;4865036;28;20633;-88
2021/11/17 07:53:44;;;;;;;3.17;1.75;;;;;;;-145.06;100.00;60892.56;4866540;28;20025;-87
2021/11/17 07:56:23;;;;;;;1.65;1.15;;;;;;;-145.06;100.00;60892.56;4869752;28;20040;-87
2021/11/17 07:59:05;;;;;;;2.20;1.73;;;;;;;-145.06;100.00;60892.56;4882281;28;20483;-87
2021/11/17 08:01:45;;;;;;;3.13;2.03;;;;;;;-145.06;100.00;60892.56;4875731;28;20036;-87
2021/11/17 08:04:28;;;;;;;2.10;1.45;;;;;;;-145.06;100.00;60892.56;4870286;28;20104;-87
2021/11/17 08:07:19;;;;;;;2.33;1.77;;;;;;;-145.06;100.00;60892.56;4879659;28;20036;-87
2021/11/17 08:09:57;;;;;;;;;;;;;;;-145.06;100.00;60892.56;4882807;28;20025;-87
2021/11/17 08:12:37;;;;;;;1.90;1.50;;;;;;;-145.06;100.00;60892.56;4873120;28;20260;-88
2021/11/17 08:15:15;;;;;;;2.25;1.60;;;;;;;-145.06;100.00;60892.56;4863999;28;20041;-87
2021/11/17 08:17:55;;;;;;;2.10;1.57;;;;;;;-145.06;100.00;60892.56;4872425;28;20029;-87
2021/11/17 08:20:34;;;;;;;1.98;1.33;;;;;;;-145.06;100.00;60892.56;4876268;28;20275;-87
2021/11/17 08:23:14;;;;;;;2.83;1.58;;;;;;;-145.06;100.00;60892.56;4880439;28;20119;-87
2021/11/17 08:25:52;;;;;;;1.90;1.43;;;;;;;-145.06;100.00;60892.56;4870079;28;20037;-88
2021/11/17 08:28:32;;;;;;;2.42;1.52;;;;;;;-145.06;100.00;60892.56;4875575;28;20042;-87
2021/11/17 08:31:13;;;;;;;1.63;1.35;;;;;;;-145.06;100.00;60892.56;4877609;28;20029;-87
2021/11/17 08:33:54;;;;;;;2.20;1.45;;;;;;;-145.06;100.00;60892.56;4870411;28;20455;-87
2021/11/17 08:36:33;;;;;;;2.88;1.58;;;;;;;-145.06;100.00;60892.56;4871332;28;20930;-87
2021/11/17 08:39:16;;;;;;;1.97;1.50;;;;;;;-145.06;100.00;60892.56;4873734;28;20033;-88
2021/11/17 08:41:55;;;;;;;2.05;1.55;;;;;;;-145.06;100.00;60892.56;4870093;28;20115;-86
2021/11/17 08:44:36;;;;;;;2.00;1.40;;;;;;;-145.06;100.00;60892.56;4871533;28;20124;-87
2021/11/17 08:47:16;;;;;;;1.98;1.35;;;;;;;-145.06;100.00;60892.56;4865483;28;20116;-87
2021/11/17 08:49:56;;;;;;;1.65;1.35;;;;;;;-145.06;100.00;60892.56;4869094;28;20033;-87
2021/11/17 08:52:35;;;;;;;2.07;1.60;;;;;;;-145.06;100.00;60892.56;4874069;28;20044;-87
2021/11/17 08:55:15;;;;;;;2.30;1.90;;;;;;;-145.06;100.00;60892.56;4870411;28;20920;-87
2021/11/17 08:57:55;;;;;;;;;;;;;;;-145.06;100.00;60892.56;4866668;28;20033;-88
2021/11/17 09:00:34;;;;;;;2.20;1.70;;;;;;;-145.06;100.00;60892.56;4873334;28;20350;-87
2021/11/17 09:03:14;;;;;;;2.85;2.10;;;;;;;-145.06;100.00;60892.56;4873162;28;20033;-88
2021/11/17 09:05:55;;;;;;;;;;;;;;;-145.06;100.00;60892.56;4870747;28;20427;-87
2021/11/17 09:08:34;;;;;;;4.03;2.50;;;;;;;-145.06;100.00;60892.56;4877421;28;20262;-89
2021/11/17 09:11:16;;;;;;;4.40;2.85;;;;;;;-145.06;100.00;60892.56;4873639;28;20033;-88
2021/11/17 09:13:56;;;;;;;3.38;2.65;;;;;;;-145.06;100.00;60892.56;4872466;28;20021;-88
2021/11/17 09:16:36;;;;;;;5.53;3.20;;;;;;;-145.06;100.00;60892.56;4862122;28;20029;-88
2021/11/17 09:19:16;;;;;;;4.95;3.30;;;;;;;-145.06;100.00;60892.56;4881448;28;20268;-87
2021/11/17 09:21:55;;;;;;;4.35;3.10;;;;;;;-145.06;100.00;60892.56;4879956;28;20040;-87
2021/11/17 09:24:35;;;;;;;6.37;4.37;;;;;;;-145.06;100.00;60892.56;4869269;28;20432;-87
2021/11/17 09:27:14;;;;;;;6.53;3.95;;;;;;;-145.06;100.00;60892.56;4865463;28;20033;-88
2021/11/17 09:29:54;;;;;;;5.10;3.75;;;;;;;-145.06;100.00;60892.56;4868477;28;20048;-88
2021/11/17 09:32:33;;;;;;;4.22;3.28;;;;;;;-145.06;100.00;60892.56;4869834;28;20033;-88
2021/11/17 09:35:14;;;;;;;5.93;3.40;;;;;;;-145.06;100.00;60892.56;4871035;28;20033;-88
2021/11/17 09:37:53;;;;;;;5.80;4.03;;;;;;;-145.06;100.00;60892.56;4863525;28;20514;-87
2021/11/17 09:40:37;;;;;;;5.90;4.03;;;;;;;-145.06;100.00;60892.56;4867922;28;20025;-86
2021/11/17 09:44:10;;;;;;;5.10;3.42;;;;;;;-145.06;0.00;60892.56;4926378;27;20840;-88
2021/11/17 09:46:49;;;;;;;4.32;3.20;;;;;;;-145.06;0.00;60892.56;4921830;28;20040;-87
2021/11/17 09:49:39;;;;;;;3.38;2.55;;;;;;;-145.06;0.00;60892.56;4921917;28;21057;-86
2021/11/17 09:52:20;;;;;;;;;;;;;;;-145.06;0.00;60892.56;4929262;28;20649;-87
2021/11/17 09:55:16;;;;;;;5.28;3.63;;;;;;;-145.06;0.00;60892.56;4939834;27;20408;-86
2021/11/17 09:58:18;;;;;;;4.35;2.97;;;;;;;-145.06;0.00;60892.56;4943112;28;20484;-87
2021/11/17 10:01:05;;;;;;;5.95;4.05;;;;;;;-145.06;0.00;60892.56;4938743;28;20058;-86
2021/11/17 10:03:59;;;;;;;6.43;4.07;;;;;;;-145.06;0.00;60892.56;4913725;28;20462;-87
2021/11/17 10:09:49;;;;;;;5.30;3.55;;;;;;;-145.06;0.00;60892.56;4929103;28;20024;-87
2021/11/17 10:12:49;;;;;;;3.75;2.67;;;;;;;-145.06;0.00;60892.56;4930615;28;20031;-87
2021/11/17 10:15:34;;;;;;;3.83;2.67;;;;;;;-145.06;0.00;60892.56;4936952;28;20086;-87
2021/11/17 10:18:32;;;;;;;3.90;2.58;;;;;;;-145.06;0.00;60892.56;4926288;28;20059;-88
2021/11/17 10:21:29;;;;;;;3.45;2.58;;;;;;;-145.06;0.00;60892.56;4912040;28;20028;-87
2021/11/17 10:24:14;;;;;;;4.40;2.90;;;;;;;-145.06;0.00;60892.56;4928499;28;20035;-87
2021/11/17 10:27:02;;;;;;;3.70;2.63;;;;;;;-145.06;0.00;60892.56;4929176;28;20470;-87
2021/11/17 10:29:54;;;;;;;3.30;2.33;;;;;;;-145.06;0.00;60892.56;4930206;28;20024;-87
2021/11/17 10:32:41;;;;;;;4.05;2.80;;;;;;;-145.06;0.00;60892.56;4920981;28;20012;-87
2021/11/17 10:35:30;;;;;;;3.97;2.65;;;;;;;-145.06;0.00;60892.56;4928017;28;20028;-88
2021/11/17 10:38:29;;;;;;;3.53;2.55;;;;;;;-145.06;0.00;60892.56;4930242;28;20032;-87
2021/11/17 10:41:20;;;;;;;5.03;3.20;;;;;;;-145.06;0.00;60892.56;4928746;28;20028;-87
2021/11/17 10:44:05;;;;;;;4.55;3.03;;;;;;;-145.06;0.00;60892.56;4929295;28;20330;-88
2021/11/17 10:46:49;;;;;;;4.07;3.13;;;;;;;-145.06;0.00;60892.56;4938671;28;20059;-87
2021/11/17 10:49:31;;;;;;;5.97;4.05;;;;;;;-145.06;0.00;60892.56;4930069;28;20032;-87
2021/11/17 10:52:13;;;;;;;5.70;3.92;;;;;;;-145.06;0.00;60892.56;4929210;28;20023;-87
2021/11/17 10:54:54;;;;;;;5.40;3.42;;;;;;;-145.06;0.00;60892.56;4918120;28;20106;-87
2021/11/17 10:57:35;;;;;;;4.80;3.17;;;;;;;-145.06;0.00;60892.56;4923586;28;20031;-88
2021/11/17 11:00:18;;;;;;;4.47;2.78;;;;;;;-145.06;0.00;60892.56;4916790;28;20655;-87
2021/11/17 11:02:59;;;;;;;4.40;3.08;;;;;;;-145.06;0.00;60892.56;4914942;28;20035;-87
2021/11/17 11:05:44;;;;;;;4.32;3.03;;;;;;;-145.06;0.00;60892.56;4905752;28;20608;-88
2021/11/17 11:08:31;;;;;;;4.50;3.00;;;;;;;-145.06;0.00;60892.56;4916461;28;20048;-88
2021/11/17 11:11:11;;;;;;;5.40;3.33;;;;;;;-145.06;0.00;60892.56;4918270;28;20024;-88
2021/11/17 11:14:00;;;;;;;7.28;3.95;;;;;;;-145.06;0.00;60892.56;4920648;28;20506;-87
2021/11/17 11:17:10;;;;;;;4.93;3.25;;;;;;;-145.06;0.00;60892.56;4923744;28;20023;-87
2021/11/17 11:19:50;;;;;;;7.00;4.43;;;;;;;-145.06;0.00;60892.56;4898678;28;20032;-87
2021/11/17 11:22:29;;;;;;;6.90;4.47;;;;;;;-145.06;0.00;60892.56;4906542;28;20434;-88
2021/11/17 11:25:45;;;;;;;6.80;3.80;;;;;;;-145.06;0.00;60892.56;4915102;28;20028;-87
2021/11/17 11:28:26;;;;;;;8.20;5.18;;;;;;;-145.06;0.00;60892.56;4904800;28;20355;-88
2021/11/17 11:31:12;;;;;;;5.80;4.22;;;;;;;-145.06;0.00;60892.56;4921654;28;20367;-89
2021/11/17 11:33:54;;;;;;;7.03;4.30;;;;;;;-145.06;0.00;60892.56;4907687;28;20346;-88
2021/11/17 11:36:43;;;;;;;6.45;3.75;;;;;;;-145.06;0.00;60892.56;4903011;28;20020;-88
2021/11/17 11:39:28;;;;;;;7.90;4.45;;;;;;;-145.06;0.00;60892.56;4919325;28;20051;-88
2021/11/17 11:42:32;;;;;;;8.02;4.40;;;;;;;-145.06;0.00;60892.56;4912942;28;20032;-88
2021/11/17 11:45:26;;;;;;;5.95;3.90;;;;;;;-145.06;0.00;60892.56;4914861;28;20040;-88
2021/11/17 11:48:07;;;;;;;6.70;3.85;;;;;;;-145.06;0.00;60892.56;4923737;28;20039;-88
2021/11/17 11:51:01;;;;;;;6.75;4.22;;;;;;;-145.06;0.00;60892.56;4905707;28;20375;-87
2021/11/17 11:54:21;;;;;;;6.25;3.85;;;;;;;-145.06;0.00;60892.56;4895825;28;20021;-88
2021/11/17 11:57:00;;;;;;;7.60;4.30;;;;;;;-145.06;0.00;60892.56;4899364;28;20032;-88
2021/11/17 11:59:41;;;;;;;6.68;4.30;;;;;;;-145.06;0.00;60892.56;4922252;28;20020;-88
2021/11/17 12:02:22;;;;;;;7.15;4.15;;;;;;;-145.06;0.00;60892.56;4909565;28;20035;-88
2021/11/17 12:05:06;;;;;;;8.13;4.78;;;;;;;-145.06;0.00;60892.56;4907690;28;20060;-88
2021/11/17 12:07:59;;;;;;;8.88;4.55;;;;;;;-145.06;0.00;60892.56;4897220;28;20024;-89
2021/11/17 12:11:02;;;;;;;8.20;5.18;;;;;;;-145.06;0.00;60892.56;4896223;28;20024;-88
2021/11/17 12:14:01;;;;;;;10.38;5.50;;;;;;;-145.06;0.00;60892.56;4910609;28;20016;-89
2021/11/17 12:16:40;;;;;;;8.52;4.97;;;;;;;-145.06;0.00;60892.56;4900492;28;20028;-88
2021/11/17 12:19:32;;;;;;;9.75;5.85;;;;;;;-145.06;0.00;60892.56;4896136;28;20040;-88
2021/11/17 12:22:22;;;;;;;8.63;5.07;;;;;;;-145.06;0.00;60892.56;4910062;28;20033;-88
2021/11/17 12:25:16;;;;;;;7.78;4.47;;;;;;;-145.06;0.00;60892.56;4912889;28;20477;-89
2021/11/17 12:28:05;;;;;;;9.95;4.68;;;;;;;-145.06;0.00;60892.56;4920573;28;20032;-88
2021/11/17 12:31:05;;;;;;;10.40;5.63;;;;;;;-145.06;0.00;60892.56;4906893;28;20024;-88
2021/11/17 12:33:55;;;;;;;9.27;5.53;;;;;;;-145.06;0.00;60892.56;4911490;28;20016;-88
2021/11/17 12:36:46;;;;;;;10.45;5.47;;;;;;;-145.06;0.00;60892.56;4915988;28;20051;-88
2021/11/17 12:39:29;;;;;;;8.35;4.95;;;;;;;-145.06;0.00;60892.56;4913191;28;20488;-88
2021/11/17 12:42:08;;;;;;;7.50;4.55;;;;;;;-145.06;0.00;60892.56;4914213;28;20131;-88
2021/11/17 12:44:50;;;;;;;7.63;4.10;;;;;;;-145.06;0.00;60892.56;4900875;28;20118;-88
2021/11/17 12:47:54;;;;;;;5.82;3.70;;;;;;;-145.06;0.00;60892.56;4916453;28;20474;-87
2021/11/17 12:50:42;;;;;;;7.30;4.28;;;;;;;-145.06;0.00;60892.56;4905191;28;20027;-88
2021/11/17 12:53:27;;;;;;;8.32;4.47;;;;;;;-145.06;0.00;60892.56;4913911;28;20028;-89
2021/11/17 12:56:29;;;;;;;7.28;4.43;;;;;;;-145.06;0.00;60892.56;4917181;28;20520;-88
2021/11/17 12:59:20;;;;;;;8.07;5.07;;;;;;;-145.06;0.00;60892.56;4922256;28;20028;-88
2021/11/17 13:02:05;;;;;;;7.85;5.03;;;;;;;-145.06;0.00;60892.56;4909315;28;20386;-87
2021/11/17 13:04:45;;;;;;;9.38;5.43;;;;;;;-145.06;0.00;60892.56;4919730;28;20036;-88
2021/11/17 13:07:41;;;;;;;9.67;5.43;;;;;;;-145.06;0.00;60892.56;4915097;28;20036;-89
2021/11/17 13:10:40;;;;;;;7.72;4.50;;;;;;;-145.06;0.00;60892.56;4911871;28;20037;-88
2021/11/17 13:13:27;;;;;;;11.23;5.40;;;;;;;-145.06;0.00;60892.56;4920697;28;20063;-89
2021/11/17 13:16:20;;;;;;;8.65;4.45;;;;;;;-145.06;0.00;60892.56;4914164;28;20032;-89
2021/11/17 13:19:06;;;;;;;8.23;4.55;;;;;;;-145.06;0.00;60892.56;4924388;28;20052;-89
2021/11/17 13:21:58;;;;;;;6.97;4.22;;;;;;;-145.06;0.00;60892.56;4910910;28;20028;-88
2021/11/17 13:24:42;;;;;;;8.13;4.97;;;;;;;-145.06;0.00;60892.56;4913190;28;20028;-89
2021/11/17 13:27:34;;;;;;;10.07;5.63;;;;;;;-145.06;0.00;60892.56;4921629;28;20366;-89
2021/11/17 13:30:28;;;;;;;9.57;4.78;;;;;;;-145.06;0.00;60892.56;4915369;28;20043;-88
2021/11/17 13:33:29;;;;;;;7.28;4.53;;;;;;;-145.06;0.00;60892.56;4906992;28;20016;-89
2021/11/17 13:36:12;;;;;;;8.43;5.15;;;;;;;-145.06;0.00;60892.56;4929334;28;20031;-89
2021/11/17 13:38:56;;;;;;;8.88;5.25;;;;;;;-145.06;0.00;60892.56;4914437;28;20059;-88
2021/11/17 13:41:37;;;;;;;8.32;4.93;;;;;;;-145.06;0.00;60892.56;4906570;28;20019;-88
2021/11/17 13:44:22;;;;;;;6.45;4.13;;;;;;;-145.06;0.00;60892.56;4927862;28;21632;-89
2021/11/17 13:47:08;;;;;;;9.30;4.93;;;;;;;-145.06;0.00;60892.56;4921139;28;20473;-88
2021/11/17 13:49:51;;;;;;;6.63;4.30;;;;;;;-145.06;0.00;60892.56;4897702;28;20036;-89
2021/11/17 13:52:34;;;;;;;7.93;5.00;;;;;;;-145.06;0.00;60892.56;4911620;28;20024;-90
2021/11/17 13:55:18;;;;;;;8.63;5.57;;;;;;;-145.06;0.00;60892.56;4920681;28;20031;-90
2021/11/17 13:57:57;;;;;;;9.73;5.18;;;;;;;-145.06;0.00;60892.56;4924219;28;20035;-88
2021/11/17 14:00:39;;;;;;;8.00;4.82;;;;;;;-145.06;0.00;60892.56;4905044;28;20025;-88
2021/11/17 14:03:19;;;;;;;10.38;5.57;;;;;;;-145.06;0.00;60892.56;4918860;28;20387;-89
2021/11/17 14:06:03;;;;;;;9.85;6.30;;;;;;;-145.06;0.00;60892.56;4909532;28;20039;-89
2021/11/17 14:08:42;;;;;;;9.63;5.53;;;;;;;-145.06;0.00;60892.56;4901521;28;20525;-88
2021/11/17 14:11:21;;;;;;;8.20;5.13;;;;;;;-145.06;0.00;60892.56;4910206;28;20032;-89
2021/11/17 14:14:01;;;;;;;8.00;4.82;;;;;;;-145.06;0.00;60892.56;4918344;28;20482;-88
2021/11/17 14:16:40;;;;;;;8.50;4.30;;;;;;;-145.06;0.00;60892.56;4899359;28;20024;-89
2021/11/17 14:19:19;;;;;;;6.40;4.18;;;;;;;-145.06;0.00;60892.56;4915406;28;20040;-88
2021/11/17 14:21:58;;;;;;;6.97;4.10;;;;;;;-145.06;0.00;60892.56;4925965;28;20473;-89
2021/11/17 14:24:37;;;;;;;7.80;4.50;;;;;;;-145.06;0.00;60892.56;4905729;28;20032;-88
2021/11/17 14:27:17;;;;;;;9.10;4.70;;;;;;;-145.06;0.00;60892.56;4930744;28;20036;-88
2021/11/17 14:30:01;;;;;;;8.38;4.70;;;;;;;-145.06;0.00;60892.56;4915055;28;20028;-88
2021/11/17 14:32:42;;;;;;;7.70;4.70;;;;;;;-145.06;0.00;60892.56;4928072;28;20020;-88
2021/11/17 14:35:25;;;;;;;7.72;4.68;;;;;;;-145.06;0.00;60892.56;4919190;28;20033;-88
2021/11/17 14:38:06;;;;;;;7.20;4.88;;;;;;;-145.06;0.00;60892.56;4937620;28;20063;-88
2021/11/17 14:40:47;;;;;;;7.45;4.50;;;;;;;-145.06;0.00;60892.56;4910744;28;20028;-89
2021/11/17 14:43:27;;;;;;;6.47;4.00;;;;;;;-145.06;0.00;60892.56;4909940;28;20020;-88
2021/11/17 14:46:06;;;;;;;7.03;4.50;;;;;;;-145.06;0.00;60892.56;4913675;28;20490;-88
2021/11/17 14:48:45;;;;;;;5.85;3.90;;;;;;;-145.06;0.00;60892.56;4934937;28;20472;-89
2021/11/17 14:51:24;;;;;;;6.68;3.58;;;;;;;-145.06;0.00;60892.56;4916160;28;20032;-88
2021/11/17 14:54:03;;;;;;;4.85;3.50;;;;;;;-145.06;0.00;60892.56;4914695;28;20032;-88
2021/11/17 14:56:44;;;;;;;6.93;4.00;;;;;;;-145.06;0.00;60892.56;4936677;28;20023;-88
2021/11/17 14:59:23;;;;;;;6.15;3.90;;;;;;;-145.06;0.00;60892.56;4925067;28;20032;-88
2021/11/17 15:02:03;;;;;;;7.00;3.60;;;;;;;-145.06;0.00;60892.56;4926920;28;20108;-88
2021/11/17 15:04:43;;;;;;;8.15;5.28;;;;;;;-145.06;0.00;60892.56;4897915;28;20271;-89
2021/11/17 15:07:22;;;;;;;9.90;5.45;;;;;;;-145.06;0.00;60892.56;4919098;28;20521;-88
2021/11/17 15:10:04;;;;;;;8.13;4.55;;;;;;;-145.06;0.00;60892.56;4914361;28;20123;-88
2021/11/17 15:12:43;;;;;;;6.95;4.25;;;;;;;-145.06;0.00;60892.56;4909291;28;20032;-89
2021/11/17 15:15:30;;;;;;;8.75;4.63;;;;;;;-145.06;0.00;60892.56;4915055;28;20111;-88
2021/11/17 15:18:09;;;;;;;8.60;5.13;;;;;;;-145.06;0.00;60892.56;4906869;28;20358;-88
2021/11/17 15:20:49;;;;;;;;;;;;;;;-145.06;0.00;60892.56;4913137;28;20028;-88
2021/11/17 15:23:30;;;;;;;6.13;3.67;;;;;;;-145.06;0.00;60892.56;4910810;28;19912;-88